createdAt,value
2023-03-02T00:02:22.535Z,22.10
2023-03-02T00:04:53.188Z,19.00
2023-03-02T00:07:22.610Z,14.27
2023-03-02T00:09:51.873Z,16.80
2023-03-02T00:12:19.619Z,19.67
2023-03-02T00:14:47.237Z,15.02
2023-03-02T00:17:16.531Z,13.52
2023-03-02T00:19:44.861Z,17.48
2023-03-02T00:22:12.499Z,14.15
2023-03-02T00:24:40.308Z,18.88
2023-03-02T00:27:09.335Z,12.65
2023-03-02T00:29:37.119Z,15.80
2023-03-02T00:32:04.817Z,16.98
2023-03-02T00:34:33.002Z,14.90
2023-03-02T00:37:00.622Z,10.00
2023-03-02T00:39:28.248Z,13.82
2023-03-02T00:41:55.968Z,13.07
2023-03-02T00:44:25.036Z,11.35
2023-03-02T00:46:52.708Z,13.30
2023-03-02T00:49:21.296Z,15.70
2023-03-02T00:51:48.967Z,10.57
2023-03-02T00:54:16.661Z,15.48
2023-03-02T00:56:44.610Z,15.85
2023-03-02T00:59:26.172Z,11.10
2023-03-02T01:01:58.300Z,11.50
2023-03-02T01:04:29.709Z,11.82
2023-03-02T01:06:57.799Z,12.23
2023-03-02T01:09:25.779Z,14.13
2023-03-02T01:11:53.391Z,10.38
2023-03-02T01:14:21.036Z,9.95
2023-03-02T01:16:48.656Z,8.05
2023-03-02T01:19:17.704Z,13.27
2023-03-02T01:21:45.380Z,11.30
2023-03-02T01:24:13.017Z,12.68
2023-03-02T01:26:40.771Z,11.90
2023-03-02T01:29:08.459Z,14.00
2023-03-02T01:31:36.157Z,13.52
2023-03-02T01:34:04.171Z,10.27
2023-03-02T01:36:33.423Z,13.80
2023-03-02T01:39:01.345Z,10.90
2023-03-02T01:41:29.269Z,10.05
2023-03-02T01:43:56.870Z,11.98
2023-03-02T01:46:26.380Z,9.43
2023-03-02T01:48:55.452Z,10.63
2023-03-02T01:51:24.122Z,9.55
2023-03-02T01:53:55.587Z,11.48
2023-03-02T01:56:25.138Z,15.10
2023-03-02T01:58:55.057Z,8.63
2023-03-02T02:01:23.071Z,11.85
2023-03-02T02:03:51.832Z,8.15
2023-03-02T02:06:22.617Z,10.40
2023-03-02T02:08:50.625Z,8.68
2023-03-02T02:11:19.794Z,11.38
2023-03-02T02:13:47.908Z,14.57
2023-03-02T02:16:15.558Z,11.65
2023-03-02T02:18:44.129Z,8.57
2023-03-02T02:21:11.973Z,12.70
2023-03-02T02:23:42.414Z,8.55
2023-03-02T02:26:18.497Z,10.88
2023-03-02T02:28:49.912Z,7.22
2023-03-02T02:31:19.993Z,10.40
2023-03-02T02:33:50.486Z,13.88
2023-03-02T02:36:20.348Z,5.53
2023-03-02T02:38:49.272Z,11.05
2023-03-02T02:41:21.681Z,10.80
2023-03-02T02:43:49.931Z,14.80
2023-03-02T02:46:18.001Z,14.27
2023-03-02T02:48:45.795Z,11.32
2023-03-02T02:51:16.668Z,13.63
2023-03-02T02:53:45.824Z,9.35
2023-03-02T02:56:14.652Z,14.38
2023-03-02T02:58:45.186Z,9.55
2023-03-02T03:01:14.971Z,13.10
2023-03-02T03:03:44.610Z,13.43
2023-03-02T03:06:16.740Z,11.63
2023-03-02T03:09:05.141Z,13.52
2023-03-02T03:11:34.990Z,10.27
2023-03-02T03:14:08.665Z,10.45
2023-03-02T03:16:36.974Z,7.32
2023-03-02T03:19:15.791Z,6.70
2023-03-02T03:21:43.406Z,8.82
2023-03-02T03:24:11.047Z,7.65
2023-03-02T03:26:38.645Z,10.90
2023-03-02T03:29:07.805Z,9.48
2023-03-02T03:31:35.635Z,12.82
2023-03-02T03:34:03.351Z,11.07
2023-03-02T03:36:31.793Z,12.50
2023-03-02T03:38:59.653Z,8.13
2023-03-02T03:41:27.444Z,12.05
2023-03-02T03:43:55.329Z,10.30
2023-03-02T03:46:25.233Z,12.95
2023-03-02T03:48:53.019Z,10.95
2023-03-02T03:51:20.669Z,9.75
2023-03-02T03:53:59.876Z,10.07
2023-03-02T03:56:27.601Z,11.23
2023-03-02T03:59:06.654Z,11.45
2023-03-02T04:01:38.585Z,14.95
2023-03-02T04:04:07.313Z,11.68
2023-03-02T04:06:35.256Z,12.48
2023-03-02T04:09:05.204Z,12.30
2023-03-02T04:11:33.337Z,11.90
2023-03-02T04:14:01.026Z,15.13
2023-03-02T04:16:28.817Z,12.68
2023-03-02T04:18:57.920Z,11.55
2023-03-02T04:21:26.061Z,12.90
2023-03-02T04:23:53.960Z,12.68
2023-03-02T04:26:21.769Z,13.00
2023-03-02T04:28:50.869Z,18.90
2023-03-02T04:31:19.158Z,8.77
2023-03-02T04:33:49.669Z,12.55
2023-03-02T04:36:19.637Z,10.35
2023-03-02T04:38:47.351Z,12.27
2023-03-02T04:41:15.019Z,11.07
2023-03-02T04:43:42.814Z,11.85
2023-03-02T04:46:11.145Z,10.15
2023-03-02T04:48:38.937Z,12.30
2023-03-02T04:51:06.784Z,9.48
2023-03-02T04:53:35.818Z,10.32
2023-03-02T04:56:03.445Z,12.40
2023-03-02T04:58:31.215Z,10.95
2023-03-02T05:01:02.160Z,10.48
2023-03-02T05:03:29.872Z,15.20
2023-03-02T05:05:57.958Z,10.88
2023-03-02T05:08:25.592Z,11.55
2023-03-02T05:10:54.586Z,18.98
2023-03-02T05:13:22.215Z,10.13
2023-03-02T05:15:51.707Z,8.88
2023-03-02T05:18:20.001Z,12.15
2023-03-02T05:20:47.800Z,11.18
2023-03-02T05:23:25.233Z,8.50
2023-03-02T05:25:55.832Z,13.10
2023-03-02T05:28:26.754Z,10.80
2023-03-02T05:30:56.387Z,11.25
2023-03-02T05:33:24.055Z,10.60
2023-03-02T05:35:51.765Z,18.35
2023-03-02T05:38:19.514Z,10.80
2023-03-02T05:40:47.406Z,13.88
2023-03-02T05:43:17.469Z,9.10
2023-03-02T05:45:45.562Z,15.90
2023-03-02T05:48:14.019Z,11.32
2023-03-02T05:50:41.800Z,11.90
2023-03-02T05:53:09.732Z,13.43
2023-03-02T05:55:37.564Z,11.52
2023-03-02T05:58:05.438Z,12.48
2023-03-02T06:00:34.447Z,9.88
2023-03-02T06:03:02.370Z,14.00
2023-03-02T06:05:30.001Z,10.48
2023-03-02T06:07:57.980Z,13.90
2023-03-02T06:10:25.942Z,10.70
2023-03-02T06:12:53.564Z,14.52
2023-03-02T06:15:21.224Z,12.88
2023-03-02T06:17:50.335Z,18.33
2023-03-02T06:20:19.150Z,14.65
2023-03-02T06:22:47.709Z,8.25
2023-03-02T06:25:18.050Z,11.65
2023-03-02T06:27:46.227Z,14.30
2023-03-02T06:30:15.763Z,14.52
2023-03-02T06:32:43.769Z,14.45
2023-03-02T06:35:13.401Z,13.50
2023-03-02T06:37:43.707Z,12.02
2023-03-02T06:40:13.698Z,14.07
2023-03-02T06:42:42.295Z,9.90
2023-03-02T06:45:10.968Z,11.55
2023-03-02T06:47:38.569Z,12.95
2023-03-02T06:50:06.846Z,12.88
2023-03-02T06:52:36.517Z,10.80
2023-03-02T06:55:04.408Z,12.48
2023-03-02T06:57:34.220Z,11.40
2023-03-02T07:00:02.274Z,15.48
2023-03-02T07:02:29.901Z,11.02
2023-03-02T07:04:57.612Z,14.38
2023-03-02T07:07:25.201Z,15.18
2023-03-02T07:09:54.347Z,19.40
2023-03-02T07:12:21.984Z,10.15
2023-03-02T07:14:49.613Z,16.73
2023-03-02T07:17:17.401Z,10.52
2023-03-02T07:19:45.051Z,13.07
2023-03-02T07:22:12.676Z,13.68
2023-03-02T07:24:40.477Z,15.55
2023-03-02T07:27:09.457Z,14.57
2023-03-02T07:29:37.067Z,12.98
2023-03-02T07:32:06.905Z,11.43
2023-03-02T07:34:34.598Z,12.80
2023-03-02T07:37:02.245Z,18.33
2023-03-02T07:39:30.118Z,13.40
2023-03-02T07:41:59.090Z,12.88
2023-03-02T07:44:29.387Z,11.90
2023-03-02T07:46:57.237Z,14.20
2023-03-02T07:49:24.949Z,15.90
2023-03-02T07:51:52.598Z,13.30
2023-03-02T07:54:20.215Z,11.55
2023-03-02T07:56:48.055Z,12.50
2023-03-02T07:59:15.694Z,16.55
2023-03-02T08:01:44.787Z,15.23
2023-03-02T08:04:12.417Z,16.35
2023-03-02T08:06:42.406Z,14.57
2023-03-02T08:09:10.211Z,16.83
2023-03-02T08:11:39.867Z,19.45
2023-03-02T08:14:07.705Z,19.38
2023-03-02T08:16:35.573Z,20.20
2023-03-02T08:19:04.560Z,21.42
2023-03-02T08:21:33.812Z,20.95
2023-03-02T08:24:02.012Z,17.08
2023-03-02T08:26:30.665Z,13.95
2023-03-02T08:28:58.322Z,16.35
2023-03-02T08:31:26.077Z,21.50
2023-03-02T08:33:54.335Z,19.85
2023-03-02T08:36:23.560Z,16.65
2023-03-02T08:38:51.193Z,17.10
2023-03-02T08:41:20.053Z,15.07
2023-03-02T08:43:48.042Z,16.48
2023-03-02T08:46:17.035Z,17.40
2023-03-02T08:48:45.324Z,17.08
2023-03-02T08:51:14.021Z,16.10
2023-03-02T08:53:43.594Z,18.05
2023-03-02T08:56:16.519Z,15.43
2023-03-02T08:58:44.158Z,16.13
2023-03-02T09:01:14.993Z,22.83
2023-03-02T09:03:45.343Z,15.77
2023-03-02T09:06:13.384Z,17.45
2023-03-02T09:08:41.270Z,19.23
2023-03-02T09:11:10.279Z,15.52
2023-03-02T09:13:38.342Z,19.95
2023-03-02T09:16:06.766Z,16.95
2023-03-02T09:18:34.520Z,21.10
2023-03-02T09:21:02.271Z,21.88
2023-03-02T09:23:30.377Z,19.10
2023-03-02T09:25:58.164Z,15.98
2023-03-02T09:28:27.200Z,19.08
2023-03-02T09:30:55.798Z,17.17
2023-03-02T09:33:23.742Z,14.98
2023-03-02T09:35:51.445Z,22.30
2023-03-02T09:38:19.299Z,16.27
2023-03-02T09:40:57.784Z,18.98
2023-03-02T09:43:34.073Z,17.25
2023-03-02T09:46:09.854Z,17.27
2023-03-02T09:48:41.658Z,16.67
2023-03-02T09:51:16.774Z,14.68
2023-03-02T09:53:47.606Z,16.00
2023-03-02T09:56:17.068Z,24.65
2023-03-02T09:58:48.975Z,19.20
2023-03-02T10:01:18.392Z,20.05
2023-03-02T10:03:49.129Z,12.82
2023-03-02T10:06:16.876Z,19.10
2023-03-02T10:08:44.933Z,13.98
2023-03-02T10:11:17.942Z,16.75
2023-03-02T10:13:49.287Z,16.55
2023-03-02T10:16:23.653Z,18.33
2023-03-02T10:18:54.457Z,19.73
2023-03-02T10:21:25.211Z,18.48
2023-03-02T10:23:56.292Z,13.63
2023-03-02T10:26:28.575Z,20.83
2023-03-02T10:29:01.718Z,15.75
2023-03-02T10:31:30.115Z,12.85
2023-03-02T10:33:58.206Z,15.95
2023-03-02T10:36:26.530Z,18.10
2023-03-02T10:38:55.188Z,15.20
2023-03-02T10:41:25.176Z,18.23
2023-03-02T10:43:53.974Z,18.67
2023-03-02T10:46:23.239Z,16.92
2023-03-02T10:48:53.927Z,21.23
2023-03-02T10:51:23.522Z,14.57
2023-03-02T10:53:51.199Z,15.45
2023-03-02T10:56:20.714Z,19.73
2023-03-02T10:58:48.714Z,17.73
2023-03-02T11:01:17.685Z,21.95
2023-03-02T11:03:57.186Z,18.90
2023-03-02T11:06:25.600Z,16.13
2023-03-02T11:09:00.170Z,16.00
2023-03-02T11:11:27.848Z,18.97
2023-03-02T11:13:56.491Z,20.05
2023-03-02T11:16:26.219Z,16.95
2023-03-02T11:18:55.922Z,18.33
2023-03-02T11:21:27.155Z,22.98
2023-03-02T11:23:59.097Z,22.85
2023-03-02T11:26:27.921Z,17.45
2023-03-02T11:28:59.468Z,18.85
2023-03-02T11:31:34.744Z,23.23
2023-03-02T11:34:23.497Z,23.45
2023-03-02T11:36:57.260Z,23.98
2023-03-02T11:39:27.011Z,19.65
2023-03-02T11:41:54.915Z,20.13
2023-03-02T11:44:24.708Z,22.25
2023-03-02T11:46:56.774Z,20.08
2023-03-02T11:49:26.214Z,22.17
2023-03-02T11:51:58.847Z,24.80
2023-03-02T11:54:36.757Z,25.70
2023-03-02T11:57:04.860Z,18.55
2023-03-02T11:59:33.407Z,24.73
2023-03-02T12:02:01.993Z,24.42
2023-03-02T12:04:32.311Z,27.42
2023-03-02T12:07:02.184Z,24.65
2023-03-02T12:09:33.266Z,22.40
2023-03-02T12:12:02.197Z,22.02
2023-03-02T12:14:36.406Z,27.17
2023-03-02T12:17:22.218Z,31.73
2023-03-02T12:22:29.124Z,17.33
2023-03-02T12:25:05.381Z,18.92
2023-03-02T12:27:37.640Z,20.70
2023-03-02T12:30:24.990Z,19.02
2023-03-02T12:33:03.322Z,16.52
2023-03-02T12:35:32.259Z,20.70
2023-03-02T12:38:02.528Z,20.75
2023-03-02T12:40:34.505Z,20.70
2023-03-02T12:43:21.629Z,21.58
2023-03-02T12:45:56.618Z,20.77
2023-03-02T12:48:26.616Z,22.83
2023-03-02T12:50:56.586Z,22.90
2023-03-02T12:53:28.048Z,21.50
2023-03-02T12:55:55.670Z,24.52
2023-03-02T12:58:24.113Z,20.95
2023-03-02T13:00:57.852Z,20.00
2023-03-02T13:03:26.396Z,17.65
2023-03-02T13:06:01.663Z,19.67
2023-03-02T13:08:31.053Z,14.80
2023-03-02T13:10:59.256Z,21.27
2023-03-02T13:13:28.574Z,23.17
2023-03-02T13:15:57.836Z,16.27
2023-03-02T13:18:26.471Z,18.52
2023-03-02T13:20:54.185Z,24.50
2023-03-02T13:23:22.099Z,19.08
2023-03-02T13:25:52.806Z,18.02
2023-03-02T13:28:27.560Z,20.58
2023-03-02T13:30:59.575Z,17.27
2023-03-02T13:33:28.280Z,18.05
2023-03-02T13:35:56.115Z,23.17
2023-03-02T13:38:25.804Z,17.40
2023-03-02T13:40:55.726Z,18.00
2023-03-02T13:43:36.199Z,18.42
2023-03-02T13:46:05.264Z,19.98
2023-03-02T13:48:35.110Z,17.63
2023-03-02T13:51:03.887Z,25.50
2023-03-02T13:53:34.913Z,19.92
2023-03-02T13:56:04.961Z,23.15
2023-03-02T13:58:35.958Z,19.38
2023-03-02T14:01:05.261Z,19.45
2023-03-02T14:03:33.048Z,20.40
2023-03-02T14:06:01.229Z,20.10
2023-03-02T14:08:28.998Z,16.63
2023-03-02T14:10:58.838Z,18.98
2023-03-02T14:13:31.640Z,23.80
2023-03-02T14:15:59.538Z,19.40
2023-03-02T14:18:32.447Z,20.20
2023-03-02T14:21:00.253Z,27.58
2023-03-02T14:23:28.381Z,18.58
2023-03-02T14:25:56.853Z,19.35
2023-03-02T14:28:26.624Z,16.33
2023-03-02T14:30:57.612Z,16.98
2023-03-02T14:33:26.010Z,19.30
2023-03-02T14:35:55.019Z,16.17
2023-03-02T14:38:24.184Z,13.85
2023-03-02T14:40:52.021Z,20.90
2023-03-02T14:43:21.278Z,20.08
2023-03-02T14:45:48.936Z,20.65
2023-03-02T14:48:17.921Z,27.88
2023-03-02T14:50:47.446Z,22.27
2023-03-02T14:53:16.784Z,18.00
2023-03-02T14:55:44.847Z,17.65
2023-03-02T14:58:16.311Z,19.23
2023-03-02T15:00:44.242Z,17.63
2023-03-02T15:03:14.533Z,22.35
2023-03-02T15:05:58.957Z,19.17
2023-03-02T15:08:28.150Z,20.80
2023-03-02T15:10:55.948Z,13.50
2023-03-02T15:13:23.670Z,19.10
2023-03-02T15:15:52.763Z,20.05
2023-03-02T15:18:20.518Z,19.77
2023-03-02T15:20:49.520Z,18.73
2023-03-02T15:23:17.155Z,16.70
2023-03-02T15:25:44.802Z,19.25
2023-03-02T15:28:12.496Z,22.83
2023-03-02T15:30:41.655Z,18.60
2023-03-02T15:33:09.347Z,18.70
2023-03-02T15:35:39.196Z,20.98
2023-03-02T15:38:08.187Z,17.00
2023-03-02T15:40:36.682Z,18.23
2023-03-02T15:43:04.368Z,17.60
2023-03-02T15:45:32.988Z,16.70
2023-03-02T15:48:00.710Z,19.05
2023-03-02T15:50:29.458Z,17.55
2023-03-02T15:52:58.358Z,18.48
2023-03-02T15:55:27.770Z,21.23
2023-03-02T15:57:58.077Z,22.45
2023-03-02T16:00:25.795Z,17.10
2023-03-02T16:02:53.517Z,21.50
2023-03-02T16:05:21.136Z,19.55
2023-03-02T16:07:48.763Z,21.30
2023-03-02T16:10:16.664Z,16.88
2023-03-02T16:12:45.647Z,16.83
2023-03-02T16:15:13.366Z,20.58
2023-03-02T16:17:40.970Z,18.85
2023-03-02T16:20:09.100Z,21.00
2023-03-02T16:22:36.764Z,16.83
2023-03-02T16:25:05.526Z,18.08
2023-03-02T16:27:33.195Z,21.85
2023-03-02T16:30:02.198Z,18.20
2023-03-02T16:32:30.180Z,17.45
2023-03-02T16:34:57.947Z,15.07
2023-03-02T16:37:25.667Z,18.55
2023-03-02T16:39:53.301Z,20.25
2023-03-02T16:42:21.201Z,18.15
2023-03-02T16:44:50.327Z,17.75
2023-03-02T16:47:19.397Z,17.50
2023-03-02T16:49:47.083Z,14.68
2023-03-02T16:52:14.837Z,25.70
2023-03-02T16:54:42.880Z,17.48
2023-03-02T16:57:10.592Z,16.55
2023-03-02T16:59:38.235Z,15.23
2023-03-02T17:02:06.049Z,16.83
2023-03-02T17:04:37.101Z,17.35
2023-03-02T17:07:06.045Z,17.85
2023-03-02T17:09:35.621Z,17.17
2023-03-02T17:12:03.245Z,13.55
2023-03-02T17:14:30.982Z,20.75
2023-03-02T17:16:58.677Z,16.88
2023-03-02T17:19:26.927Z,16.92
2023-03-02T17:21:56.998Z,21.75
2023-03-02T17:24:24.637Z,22.80
2023-03-02T17:26:52.266Z,18.75
2023-03-02T17:29:20.129Z,18.98
2023-03-02T17:31:47.763Z,15.77
2023-03-02T17:34:15.534Z,20.17
2023-03-02T17:36:43.254Z,17.15
2023-03-02T17:39:12.410Z,16.55
2023-03-02T17:41:40.160Z,20.15
2023-03-02T17:44:11.695Z,16.60
2023-03-02T17:46:42.964Z,24.70
2023-03-02T17:49:10.968Z,26.60
2023-03-02T17:51:38.672Z,18.38
2023-03-02T17:54:07.336Z,25.20
2023-03-02T17:56:37.349Z,14.63
2023-03-02T17:59:05.779Z,23.38
2023-03-02T18:01:34.344Z,13.40
2023-03-02T18:04:02.603Z,36.83
2023-03-02T18:06:30.454Z,45.83
2023-03-02T18:08:58.118Z,28.63
2023-03-02T18:11:26.384Z,23.05
2023-03-02T18:13:55.996Z,30.83
2023-03-02T18:16:24.025Z,19.67
2023-03-02T18:18:53.890Z,17.73
2023-03-02T18:21:22.264Z,22.63
2023-03-02T18:23:50.092Z,19.98
2023-03-02T18:26:17.932Z,21.40
2023-03-02T18:28:46.176Z,16.77
2023-03-02T18:31:16.117Z,17.38
2023-03-02T18:33:43.876Z,16.23
2023-03-02T18:36:11.642Z,16.58
2023-03-02T18:38:39.772Z,15.73
2023-03-02T18:41:08.127Z,16.83
2023-03-02T18:43:38.970Z,17.63
2023-03-02T18:46:06.688Z,19.63
2023-03-02T18:48:35.691Z,19.67
2023-03-02T18:51:03.511Z,13.45
2023-03-02T18:53:31.146Z,13.52
2023-03-02T18:55:58.922Z,21.00
2023-03-02T18:58:26.604Z,15.35
2023-03-02T19:00:54.758Z,24.83
2023-03-02T19:03:26.252Z,16.55
2023-03-02T19:05:57.949Z,21.58
2023-03-02T19:08:26.287Z,18.48
2023-03-02T19:10:54.815Z,16.25
2023-03-02T19:13:22.639Z,14.60
2023-03-02T19:15:50.233Z,21.00
2023-03-02T19:18:18.269Z,24.60
2023-03-02T19:20:46.562Z,18.45
2023-03-02T19:23:15.605Z,19.98
2023-03-02T19:25:43.254Z,19.17
2023-03-02T19:28:10.991Z,15.07
2023-03-02T19:30:40.132Z,25.83
2023-03-02T19:33:09.807Z,26.17
2023-03-02T19:35:38.645Z,24.92
2023-03-02T19:38:06.733Z,21.80
2023-03-02T19:40:36.765Z,23.42
2023-03-02T19:43:05.270Z,28.23
2023-03-02T19:45:35.014Z,18.27
2023-03-02T19:48:03.537Z,28.70
2023-03-02T19:50:31.555Z,31.20
2023-03-02T19:52:59.876Z,26.73
2023-03-02T19:55:27.637Z,20.92
2023-03-02T19:58:02.036Z,35.20
2023-03-02T20:00:33.287Z,26.08
2023-03-02T20:03:01.340Z,29.98
2023-03-02T20:05:28.986Z,23.23
2023-03-02T20:07:56.787Z,23.83
2023-03-02T20:10:28.569Z,30.30
2023-03-02T20:12:59.596Z,22.63
2023-03-02T20:15:29.967Z,24.33
2023-03-02T20:17:59.450Z,24.23
2023-03-02T20:20:28.761Z,22.70
2023-03-02T20:22:56.456Z,28.08
2023-03-02T20:25:24.301Z,27.08
2023-03-02T20:27:53.014Z,26.40
2023-03-02T20:30:24.868Z,25.27
2023-03-02T20:32:52.630Z,26.45
2023-03-02T20:35:20.889Z,26.02
2023-03-02T20:37:51.904Z,23.17
2023-03-02T20:40:20.317Z,23.90
2023-03-02T20:42:47.943Z,24.27
2023-03-02T20:45:15.634Z,21.27
2023-03-02T20:47:45.440Z,21.40
2023-03-02T20:50:16.275Z,25.90
2023-03-02T20:52:44.488Z,30.80
2023-03-02T20:55:12.951Z,27.23
2023-03-02T20:57:40.703Z,22.95
2023-03-02T21:00:09.461Z,32.50
2023-03-02T21:02:37.362Z,26.02
2023-03-02T21:05:06.949Z,24.38
2023-03-02T21:07:35.903Z,24.65
2023-03-02T21:10:03.678Z,28.88
2023-03-02T21:12:33.156Z,26.27
2023-03-02T21:15:02.253Z,22.13
2023-03-02T21:17:30.699Z,27.58
2023-03-02T21:19:58.463Z,29.45
2023-03-02T21:22:49.355Z,26.42
2023-03-02T21:25:17.073Z,32.83
2023-03-02T21:27:45.060Z,27.45
2023-03-02T21:30:15.669Z,35.05
2023-03-02T21:32:45.671Z,26.27
2023-03-02T21:35:14.017Z,31.13
2023-03-02T21:37:43.836Z,29.85
2023-03-02T21:40:16.573Z,27.98
2023-03-02T21:42:44.362Z,30.88
2023-03-02T21:45:12.831Z,30.73
2023-03-02T21:47:41.318Z,29.95
2023-03-02T21:50:11.349Z,35.42
2023-03-02T21:52:40.427Z,24.70
2023-03-02T21:55:10.974Z,29.17
2023-03-02T21:57:38.607Z,28.08
2023-03-02T22:00:07.290Z,30.95
2023-03-02T22:02:34.922Z,31.92
2023-03-02T22:05:04.638Z,37.08
2023-03-02T22:07:32.424Z,35.90
2023-03-02T22:10:00.062Z,33.40
2023-03-02T22:12:29.115Z,24.77
2023-03-02T22:14:57.477Z,30.77
2023-03-02T22:17:25.101Z,31.52
2023-03-02T22:19:53.219Z,36.70
2023-03-02T22:22:24.317Z,33.08
2023-03-02T22:24:52.559Z,28.65
2023-03-02T22:27:23.239Z,27.55
2023-03-02T22:29:53.384Z,25.10
2023-03-02T22:32:22.618Z,34.72
2023-03-02T22:34:50.977Z,31.40
2023-03-02T22:37:20.251Z,33.78
2023-03-02T22:39:49.154Z,33.72
2023-03-02T22:42:17.736Z,34.88
2023-03-02T22:44:47.464Z,27.35
2023-03-02T22:47:17.585Z,31.60
2023-03-02T22:49:45.740Z,33.65
2023-03-02T22:52:14.539Z,37.63
2023-03-02T22:54:42.223Z,32.60
2023-03-02T22:57:17.802Z,35.35
2023-03-02T22:59:45.745Z,35.60
2023-03-02T23:02:15.885Z,38.20
2023-03-02T23:04:46.502Z,40.42
2023-03-02T23:07:17.209Z,40.92
2023-03-02T23:09:44.968Z,30.67
2023-03-02T23:12:16.791Z,34.70
2023-03-02T23:14:47.868Z,37.78
2023-03-02T23:17:19.048Z,42.00
2023-03-02T23:19:48.314Z,37.72
2023-03-02T23:22:15.943Z,34.47
2023-03-02T23:24:43.701Z,46.38
2023-03-02T23:27:11.386Z,37.45
2023-03-02T23:29:39.662Z,42.83
2023-03-02T23:32:07.548Z,36.35
2023-03-02T23:34:38.001Z,47.03
2023-03-02T23:37:07.041Z,41.10
2023-03-02T23:39:34.718Z,39.45
2023-03-02T23:42:02.394Z,39.75
2023-03-02T23:44:30.029Z,46.60
2023-03-02T23:46:58.696Z,46.67
2023-03-02T23:49:26.324Z,43.05
2023-03-02T23:51:54.330Z,37.72
2023-03-02T23:54:23.341Z,37.08
2023-03-02T23:56:50.990Z,35.80
2023-03-02T23:59:21.850Z,34.42
